sensor_id;sensor_type;location;lat;lon;timestamp;P1;durP1;ratioP1;P2;durP2;ratioP2
22768;SDS011;13001;51.968;5.918;2024-03-06T00:00:37;47.15;;;34.05;;
22768;SDS011;13001;51.968;5.918;2024-03-06T00:03:04;47.00;;;33.58;;
22768;SDS011;13001;51.968;5.918;2024-03-06T00:05:32;45.33;;;33.42;;
22768;SDS011;13001;51.968;5.918;2024-03-06T00:08:00;46.05;;;33.50;;
22768;SDS011;13001;51.968;5.918;2024-03-06T00:10:29;50.17;;;33.40;;
22768;SDS011;13001;51.968;5.918;2024-03-06T00:12:56;48.90;;;34.43;;
22768;SDS011;13001;51.968;5.918;2024-03-06T00:15:24;52.90;;;34.00;;
22768;SDS011;13001;51.968;5.918;2024-03-06T00:17:53;47.03;;;33.33;;
22768;SDS011;13001;51.968;5.918;2024-03-06T00:20:20;45.78;;;34.03;;
22768;SDS011;13001;51.968;5.918;2024-03-06T00:22:48;48.68;;;34.48;;
22768;SDS011;13001;51.968;5.918;2024-03-06T00:25:16;48.87;;;34.85;;
22768;SDS011;13001;51.968;5.918;2024-03-06T00:27:43;49.98;;;34.92;;
22768;SDS011;13001;51.968;5.918;2024-03-06T00:30:12;48.23;;;35.10;;
22768;SDS011;13001;51.968;5.918;2024-03-06T00:32:40;50.83;;;36.17;;
22768;SDS011;13001;51.968;5.918;2024-03-06T00:35:07;52.53;;;35.73;;
22768;SDS011;13001;51.968;5.918;2024-03-06T00:37:35;49.03;;;35.78;;
22768;SDS011;13001;51.968;5.918;2024-03-06T00:40:02;48.68;;;35.15;;
22768;SDS011;13001;51.968;5.918;2024-03-06T00:42:30;52.00;;;35.73;;
22768;SDS011;13001;51.968;5.918;2024-03-06T00:44:59;52.38;;;35.28;;
22768;SDS011;13001;51.968;5.918;2024-03-06T00:47:28;50.43;;;36.23;;
22768;SDS011;13001;51.968;5.918;2024-03-06T00:49:55;53.78;;;36.33;;
22768;SDS011;13001;51.968;5.918;2024-03-06T00:52:23;51.37;;;36.70;;
22768;SDS011;13001;51.968;5.918;2024-03-06T00:54:50;52.60;;;36.93;;
22768;SDS011;13001;51.968;5.918;2024-03-06T00:57:18;56.15;;;38.42;;
22768;SDS011;13001;51.968;5.918;2024-03-06T00:59:45;53.20;;;37.95;;
22768;SDS011;13001;51.968;5.918;2024-03-06T01:02:13;55.38;;;39.03;;
22768;SDS011;13001;51.968;5.918;2024-03-06T01:04:40;58.30;;;41.17;;
22768;SDS011;13001;51.968;5.918;2024-03-06T01:07:08;56.25;;;40.52;;
22768;SDS011;13001;51.968;5.918;2024-03-06T01:09:36;55.30;;;40.78;;
22768;SDS011;13001;51.968;5.918;2024-03-06T01:12:04;58.50;;;41.47;;
22768;SDS011;13001;51.968;5.918;2024-03-06T01:14:32;59.23;;;40.78;;
22768;SDS011;13001;51.968;5.918;2024-03-06T01:16:59;63.63;;;42.17;;
22768;SDS011;13001;51.968;5.918;2024-03-06T01:19:28;59.48;;;41.80;;
22768;SDS011;13001;51.968;5.918;2024-03-06T01:21:55;61.18;;;42.70;;
22768;SDS011;13001;51.968;5.918;2024-03-06T01:24:23;62.88;;;42.75;;
22768;SDS011;13001;51.968;5.918;2024-03-06T01:26:50;57.13;;;41.83;;
22768;SDS011;13001;51.968;5.918;2024-03-06T01:29:18;59.55;;;41.60;;
22768;SDS011;13001;51.968;5.918;2024-03-06T01:31:45;55.33;;;39.35;;
22768;SDS011;13001;51.968;5.918;2024-03-06T01:34:13;58.98;;;41.37;;
22768;SDS011;13001;51.968;5.918;2024-03-06T01:36:40;59.93;;;41.63;;
22768;SDS011;13001;51.968;5.918;2024-03-06T01:39:08;59.80;;;42.60;;
22768;SDS011;13001;51.968;5.918;2024-03-06T01:41:35;58.15;;;40.78;;
22768;SDS011;13001;51.968;5.918;2024-03-06T01:44:03;64.03;;;43.05;;
22768;SDS011;13001;51.968;5.918;2024-03-06T01:46:30;63.40;;;43.05;;
22768;SDS011;13001;51.968;5.918;2024-03-06T01:48:58;58.03;;;42.80;;
22768;SDS011;13001;51.968;5.918;2024-03-06T01:51:25;62.33;;;42.60;;
22768;SDS011;13001;51.968;5.918;2024-03-06T01:53:53;60.45;;;43.65;;
22768;SDS011;13001;51.968;5.918;2024-03-06T01:56:21;62.15;;;42.83;;
22768;SDS011;13001;51.968;5.918;2024-03-06T01:58:49;58.73;;;43.23;;
22768;SDS011;13001;51.968;5.918;2024-03-06T02:01:17;59.67;;;42.70;;
22768;SDS011;13001;51.968;5.918;2024-03-06T02:03:45;62.88;;;43.83;;
22768;SDS011;13001;51.968;5.918;2024-03-06T02:06:12;56.45;;;43.20;;
22768;SDS011;13001;51.968;5.918;2024-03-06T02:08:43;59.33;;;43.28;;
22768;SDS011;13001;51.968;5.918;2024-03-06T02:11:10;62.67;;;44.73;;
22768;SDS011;13001;51.968;5.918;2024-03-06T02:13:39;63.20;;;44.27;;
22768;SDS011;13001;51.968;5.918;2024-03-06T02:16:07;62.20;;;44.63;;
22768;SDS011;13001;51.968;5.918;2024-03-06T02:18:36;63.38;;;45.58;;
22768;SDS011;13001;51.968;5.918;2024-03-06T02:21:06;62.67;;;45.60;;
22768;SDS011;13001;51.968;5.918;2024-03-06T02:23:34;63.55;;;44.33;;
22768;SDS011;13001;51.968;5.918;2024-03-06T02:26:01;67.42;;;46.80;;
22768;SDS011;13001;51.968;5.918;2024-03-06T02:28:29;66.67;;;47.67;;
22768;SDS011;13001;51.968;5.918;2024-03-06T02:30:56;66.65;;;46.15;;
22768;SDS011;13001;51.968;5.918;2024-03-06T02:33:25;72.17;;;48.00;;
22768;SDS011;13001;51.968;5.918;2024-03-06T02:35:52;69.80;;;47.83;;
22768;SDS011;13001;51.968;5.918;2024-03-06T02:38:20;68.57;;;48.38;;
22768;SDS011;13001;51.968;5.918;2024-03-06T02:40:47;70.10;;;47.65;;
22768;SDS011;13001;51.968;5.918;2024-03-06T02:53:03;76.47;;;50.57;;
22768;SDS011;13001;51.968;5.918;2024-03-06T02:55:30;63.53;;;41.70;;
22768;SDS011;13001;51.968;5.918;2024-03-06T02:58:01;60.17;;;42.17;;
22768;SDS011;13001;51.968;5.918;2024-03-06T03:00:30;66.17;;;43.70;;
22768;SDS011;13001;51.968;5.918;2024-03-06T03:02:57;79.20;;;54.40;;
22768;SDS011;13001;51.968;5.918;2024-03-06T03:05:25;75.57;;;51.50;;
22768;SDS011;13001;51.968;5.918;2024-03-06T03:07:53;70.80;;;50.30;;
22768;SDS011;13001;51.968;5.918;2024-03-06T03:10:21;71.37;;;49.80;;
22768;SDS011;13001;51.968;5.918;2024-03-06T03:12:50;73.75;;;51.30;;
22768;SDS011;13001;51.968;5.918;2024-03-06T03:15:19;81.15;;;53.02;;
22768;SDS011;13001;51.968;5.918;2024-03-06T03:17:46;49.40;;;37.90;;
22768;SDS011;13001;51.968;5.918;2024-03-06T03:20:14;63.68;;;45.90;;
22768;SDS011;13001;51.968;5.918;2024-03-06T03:22:42;54.67;;;40.28;;
22768;SDS011;13001;51.968;5.918;2024-03-06T03:25:10;68.60;;;46.65;;
22768;SDS011;13001;51.968;5.918;2024-03-06T03:27:39;59.08;;;42.45;;
22768;SDS011;13001;51.968;5.918;2024-03-06T03:30:12;82.55;;;54.60;;
22768;SDS011;13001;51.968;5.918;2024-03-06T03:32:41;82.90;;;57.60;;
22768;SDS011;13001;51.968;5.918;2024-03-06T03:35:09;84.95;;;56.08;;
22768;SDS011;13001;51.968;5.918;2024-03-06T03:37:36;80.90;;;56.00;;
22768;SDS011;13001;51.968;5.918;2024-03-06T03:40:04;78.47;;;53.02;;
22768;SDS011;13001;51.968;5.918;2024-03-06T03:42:33;75.60;;;50.35;;
22768;SDS011;13001;51.968;5.918;2024-03-06T03:45:00;70.47;;;48.93;;
22768;SDS011;13001;51.968;5.918;2024-03-06T03:47:29;68.15;;;47.67;;
22768;SDS011;13001;51.968;5.918;2024-03-06T03:49:57;62.13;;;44.27;;
22768;SDS011;13001;51.968;5.918;2024-03-06T03:52:25;65.70;;;44.98;;
22768;SDS011;13001;51.968;5.918;2024-03-06T03:54:53;71.57;;;47.93;;
22768;SDS011;13001;51.968;5.918;2024-03-06T03:57:21;64.70;;;45.35;;
22768;SDS011;13001;51.968;5.918;2024-03-06T03:59:48;73.42;;;50.33;;
22768;SDS011;13001;51.968;5.918;2024-03-06T04:02:17;76.40;;;51.23;;
22768;SDS011;13001;51.968;5.918;2024-03-06T04:04:44;75.83;;;51.00;;
22768;SDS011;13001;51.968;5.918;2024-03-06T04:07:12;78.83;;;53.15;;
22768;SDS011;13001;51.968;5.918;2024-03-06T04:09:41;77.35;;;51.15;;
22768;SDS011;13001;51.968;5.918;2024-03-06T04:12:09;81.92;;;54.10;;
22768;SDS011;13001;51.968;5.918;2024-03-06T04:14:36;81.00;;;55.45;;
22768;SDS011;13001;51.968;5.918;2024-03-06T04:17:04;81.30;;;56.58;;
22768;SDS011;13001;51.968;5.918;2024-03-06T04:19:32;81.55;;;55.33;;
22768;SDS011;13001;51.968;5.918;2024-03-06T04:21:59;83.70;;;56.63;;
22768;SDS011;13001;51.968;5.918;2024-03-06T04:24:27;84.00;;;55.30;;
22768;SDS011;13001;51.968;5.918;2024-03-06T04:26:54;83.95;;;56.85;;
22768;SDS011;13001;51.968;5.918;2024-03-06T04:29:22;89.07;;;57.80;;
22768;SDS011;13001;51.968;5.918;2024-03-06T04:31:49;78.70;;;52.98;;
22768;SDS011;13001;51.968;5.918;2024-03-06T04:34:17;76.45;;;51.65;;
22768;SDS011;13001;51.968;5.918;2024-03-06T04:36:45;76.28;;;50.83;;
22768;SDS011;13001;51.968;5.918;2024-03-06T04:39:13;78.15;;;53.75;;
22768;SDS011;13001;51.968;5.918;2024-03-06T04:41:40;79.27;;;54.00;;
22768;SDS011;13001;51.968;5.918;2024-03-06T04:44:08;81.80;;;55.57;;
22768;SDS011;13001;51.968;5.918;2024-03-06T04:46:35;75.57;;;53.33;;
22768;SDS011;13001;51.968;5.918;2024-03-06T04:49:05;81.00;;;57.05;;
22768;SDS011;13001;51.968;5.918;2024-03-06T04:51:32;87.92;;;57.85;;
22768;SDS011;13001;51.968;5.918;2024-03-06T04:54:00;82.45;;;55.35;;
22768;SDS011;13001;51.968;5.918;2024-03-06T04:56:27;81.80;;;54.75;;
22768;SDS011;13001;51.968;5.918;2024-03-06T04:58:55;69.67;;;48.98;;
22768;SDS011;13001;51.968;5.918;2024-03-06T05:01:22;70.57;;;48.95;;
22768;SDS011;13001;51.968;5.918;2024-03-06T05:03:50;80.65;;;54.95;;
22768;SDS011;13001;51.968;5.918;2024-03-06T05:06:17;79.97;;;54.75;;
22768;SDS011;13001;51.968;5.918;2024-03-06T05:08:45;77.32;;;53.02;;
22768;SDS011;13001;51.968;5.918;2024-03-06T05:11:12;87.50;;;54.97;;
22768;SDS011;13001;51.968;5.918;2024-03-06T05:13:40;111.22;;;54.50;;
22768;SDS011;13001;51.968;5.918;2024-03-06T05:16:07;124.97;;;53.42;;
22768;SDS011;13001;51.968;5.918;2024-03-06T05:18:35;389.30;;;52.33;;
22768;SDS011;13001;51.968;5.918;2024-03-06T05:21:02;362.72;;;50.88;;
22768;SDS011;13001;51.968;5.918;2024-03-06T05:23:33;158.75;;;48.30;;
22768;SDS011;13001;51.968;5.918;2024-03-06T05:26:00;209.60;;;50.03;;
22768;SDS011;13001;51.968;5.918;2024-03-06T05:28:28;205.03;;;44.40;;
22768;SDS011;13001;51.968;5.918;2024-03-06T05:30:56;124.60;;;40.83;;
22768;SDS011;13001;51.968;5.918;2024-03-06T05:33:23;177.57;;;38.92;;
22768;SDS011;13001;51.968;5.918;2024-03-06T05:35:52;170.68;;;35.63;;
22768;SDS011;13001;51.968;5.918;2024-03-06T05:38:20;138.77;;;36.17;;
22768;SDS011;13001;51.968;5.918;2024-03-06T05:40:47;197.10;;;36.93;;
22768;SDS011;13001;51.968;5.918;2024-03-06T05:43:15;186.47;;;36.87;;
22768;SDS011;13001;51.968;5.918;2024-03-06T05:45:42;191.68;;;42.75;;
22768;SDS011;13001;51.968;5.918;2024-03-06T05:48:11;236.55;;;43.48;;
22768;SDS011;13001;51.968;5.918;2024-03-06T05:50:38;228.70;;;43.40;;
22768;SDS011;13001;51.968;5.918;2024-03-06T05:53:06;238.90;;;42.40;;
22768;SDS011;13001;51.968;5.918;2024-03-06T05:55:33;206.90;;;42.60;;
22768;SDS011;13001;51.968;5.918;2024-03-06T05:58:02;158.40;;;41.30;;
22768;SDS011;13001;51.968;5.918;2024-03-06T06:00:31;193.80;;;43.10;;
22768;SDS011;13001;51.968;5.918;2024-03-06T06:03:00;194.05;;;42.27;;
22768;SDS011;13001;51.968;5.918;2024-03-06T06:05:27;143.47;;;42.78;;
22768;SDS011;13001;51.968;5.918;2024-03-06T06:07:55;124.00;;;41.08;;
22768;SDS011;13001;51.968;5.918;2024-03-06T06:10:22;139.65;;;41.37;;
22768;SDS011;13001;51.968;5.918;2024-03-06T06:12:50;134.82;;;40.75;;
22768;SDS011;13001;51.968;5.918;2024-03-06T06:15:18;130.97;;;39.18;;
22768;SDS011;13001;51.968;5.918;2024-03-06T06:17:46;171.55;;;41.30;;
22768;SDS011;13001;51.968;5.918;2024-03-06T06:20:17;183.00;;;43.05;;
22768;SDS011;13001;51.968;5.918;2024-03-06T06:22:44;193.77;;;45.70;;
22768;SDS011;13001;51.968;5.918;2024-03-06T06:25:12;156.30;;;46.55;;
22768;SDS011;13001;51.968;5.918;2024-03-06T06:27:41;213.28;;;47.08;;
22768;SDS011;13001;51.968;5.918;2024-03-06T06:30:09;146.62;;;45.17;;
22768;SDS011;13001;51.968;5.918;2024-03-06T06:32:38;153.12;;;46.50;;
22768;SDS011;13001;51.968;5.918;2024-03-06T06:35:06;228.80;;;46.15;;
22768;SDS011;13001;51.968;5.918;2024-03-06T06:37:36;152.70;;;44.15;;
22768;SDS011;13001;51.968;5.918;2024-03-06T06:40:04;133.55;;;44.08;;
22768;SDS011;13001;51.968;5.918;2024-03-06T06:42:34;196.47;;;44.23;;
22768;SDS011;13001;51.968;5.918;2024-03-06T06:45:02;96.47;;;44.00;;
22768;SDS011;13001;51.968;5.918;2024-03-06T06:47:38;183.45;;;48.40;;
22768;SDS011;13001;51.968;5.918;2024-03-06T06:50:06;87.05;;;46.20;;
22768;SDS011;13001;51.968;5.918;2024-03-06T06:52:35;99.07;;;46.45;;
22768;SDS011;13001;51.968;5.918;2024-03-06T06:55:02;129.47;;;43.48;;
22768;SDS011;13001;51.968;5.918;2024-03-06T06:57:31;230.05;;;43.13;;
22768;SDS011;13001;51.968;5.918;2024-03-06T07:00:01;164.57;;;37.50;;
22768;SDS011;13001;51.968;5.918;2024-03-06T07:02:30;169.53;;;37.03;;
22768;SDS011;13001;51.968;5.918;2024-03-06T07:04:58;157.70;;;36.42;;
22768;SDS011;13001;51.968;5.918;2024-03-06T07:07:25;149.07;;;36.95;;
22768;SDS011;13001;51.968;5.918;2024-03-06T07:09:53;146.93;;;39.10;;
22768;SDS011;13001;51.968;5.918;2024-03-06T07:12:20;152.72;;;41.85;;
22768;SDS011;13001;51.968;5.918;2024-03-06T07:14:48;125.50;;;39.50;;
22768;SDS011;13001;51.968;5.918;2024-03-06T07:17:15;105.55;;;40.92;;
22768;SDS011;13001;51.968;5.918;2024-03-06T07:19:43;138.43;;;36.60;;
22768;SDS011;13001;51.968;5.918;2024-03-06T07:22:11;222.65;;;34.85;;
22768;SDS011;13001;51.968;5.918;2024-03-06T07:24:38;133.93;;;33.92;;
22768;SDS011;13001;51.968;5.918;2024-03-06T07:27:07;213.10;;;30.97;;
22768;SDS011;13001;51.968;5.918;2024-03-06T07:29:35;216.47;;;29.67;;
22768;SDS011;13001;51.968;5.918;2024-03-06T07:32:06;299.42;;;27.20;;
22768;SDS011;13001;51.968;5.918;2024-03-06T07:34:34;248.07;;;24.75;;
22768;SDS011;13001;51.968;5.918;2024-03-06T07:37:01;195.77;;;24.13;;
22768;SDS011;13001;51.968;5.918;2024-03-06T07:39:30;216.12;;;22.45;;
22768;SDS011;13001;51.968;5.918;2024-03-06T07:42:01;285.80;;;22.13;;
22768;SDS011;13001;51.968;5.918;2024-03-06T07:44:28;239.38;;;24.92;;
22768;SDS011;13001;51.968;5.918;2024-03-06T07:46:56;418.70;;;26.37;;
22768;SDS011;13001;51.968;5.918;2024-03-06T07:49:23;185.73;;;23.80;;
22768;SDS011;13001;51.968;5.918;2024-03-06T07:51:51;388.80;;;27.30;;
22768;SDS011;13001;51.968;5.918;2024-03-06T07:54:19;301.30;;;26.27;;
22768;SDS011;13001;51.968;5.918;2024-03-06T07:56:47;308.70;;;26.02;;
22768;SDS011;13001;51.968;5.918;2024-03-06T07:59:14;312.05;;;28.92;;
22768;SDS011;13001;51.968;5.918;2024-03-06T08:01:43;213.57;;;24.23;;
22768;SDS011;13001;51.968;5.918;2024-03-06T08:04:11;370.82;;;28.90;;
22768;SDS011;13001;51.968;5.918;2024-03-06T08:06:39;268.97;;;30.17;;
22768;SDS011;13001;51.968;5.918;2024-03-06T08:09:07;305.57;;;31.80;;
22768;SDS011;13001;51.968;5.918;2024-03-06T08:11:35;428.73;;;34.08;;
22768;SDS011;13001;51.968;5.918;2024-03-06T08:14:02;336.75;;;32.75;;
22768;SDS011;13001;51.968;5.918;2024-03-06T08:16:30;358.85;;;32.55;;
22768;SDS011;13001;51.968;5.918;2024-03-06T08:18:58;376.90;;;36.53;;
22768;SDS011;13001;51.968;5.918;2024-03-06T08:21:26;255.77;;;34.53;;
22768;SDS011;13001;51.968;5.918;2024-03-06T08:23:53;321.55;;;33.48;;
22768;SDS011;13001;51.968;5.918;2024-03-06T08:26:22;223.03;;;34.40;;
22768;SDS011;13001;51.968;5.918;2024-03-06T08:28:49;258.35;;;33.78;;
22768;SDS011;13001;51.968;5.918;2024-03-06T08:31:17;251.95;;;36.28;;
22768;SDS011;13001;51.968;5.918;2024-03-06T08:33:46;245.35;;;36.03;;
22768;SDS011;13001;51.968;5.918;2024-03-06T08:36:14;247.95;;;33.65;;
22768;SDS011;13001;51.968;5.918;2024-03-06T08:38:41;396.70;;;33.58;;
22768;SDS011;13001;51.968;5.918;2024-03-06T08:41:09;229.80;;;34.97;;
22768;SDS011;13001;51.968;5.918;2024-03-06T08:43:37;252.95;;;35.68;;
22768;SDS011;13001;51.968;5.918;2024-03-06T08:46:04;268.30;;;37.33;;
22768;SDS011;13001;51.968;5.918;2024-03-06T08:48:32;208.93;;;38.57;;
22768;SDS011;13001;51.968;5.918;2024-03-06T08:50:59;167.60;;;38.73;;
22768;SDS011;13001;51.968;5.918;2024-03-06T08:53:27;298.65;;;38.33;;
22768;SDS011;13001;51.968;5.918;2024-03-06T08:55:54;178.35;;;39.60;;
22768;SDS011;13001;51.968;5.918;2024-03-06T08:58:22;269.43;;;39.58;;
22768;SDS011;13001;51.968;5.918;2024-03-06T09:00:49;322.30;;;38.67;;
22768;SDS011;13001;51.968;5.918;2024-03-06T09:03:17;291.30;;;38.63;;
22768;SDS011;13001;51.968;5.918;2024-03-06T09:05:44;262.98;;;39.18;;
22768;SDS011;13001;51.968;5.918;2024-03-06T09:08:12;197.37;;;40.05;;
22768;SDS011;13001;51.968;5.918;2024-03-06T09:10:39;143.05;;;39.90;;
22768;SDS011;13001;51.968;5.918;2024-03-06T09:13:07;193.13;;;40.27;;
22768;SDS011;13001;51.968;5.918;2024-03-06T09:15:34;124.12;;;43.48;;
22768;SDS011;13001;51.968;5.918;2024-03-06T09:18:02;134.40;;;47.05;;
22768;SDS011;13001;51.968;5.918;2024-03-06T09:20:29;96.90;;;47.80;;
22768;SDS011;13001;51.968;5.918;2024-03-06T09:22:57;192.40;;;48.87;;
22768;SDS011;13001;51.968;5.918;2024-03-06T09:25:26;178.70;;;49.50;;
22768;SDS011;13001;51.968;5.918;2024-03-06T09:27:54;111.45;;;50.45;;
22768;SDS011;13001;51.968;5.918;2024-03-06T09:30:22;102.25;;;50.83;;
22768;SDS011;13001;51.968;5.918;2024-03-06T09:32:50;106.83;;;48.63;;
22768;SDS011;13001;51.968;5.918;2024-03-06T09:35:18;103.12;;;49.70;;
22768;SDS011;13001;51.968;5.918;2024-03-06T09:37:45;105.37;;;50.38;;
22768;SDS011;13001;51.968;5.918;2024-03-06T09:40:22;92.90;;;51.60;;
22768;SDS011;13001;51.968;5.918;2024-03-06T09:42:49;91.02;;;49.77;;
22768;SDS011;13001;51.968;5.918;2024-03-06T09:45:17;114.37;;;49.88;;
22768;SDS011;13001;51.968;5.918;2024-03-06T09:47:49;92.92;;;50.45;;
22768;SDS011;13001;51.968;5.918;2024-03-06T09:50:17;87.50;;;50.07;;
22768;SDS011;13001;51.968;5.918;2024-03-06T09:52:48;90.67;;;49.93;;
22768;SDS011;13001;51.968;5.918;2024-03-06T09:55:19;83.92;;;48.75;;
22768;SDS011;13001;51.968;5.918;2024-03-06T09:57:47;90.20;;;50.35;;
22768;SDS011;13001;51.968;5.918;2024-03-06T10:00:16;87.02;;;47.80;;
22768;SDS011;13001;51.968;5.918;2024-03-06T10:03:01;83.17;;;46.90;;
22768;SDS011;13001;51.968;5.918;2024-03-06T10:05:33;84.22;;;47.00;;
22768;SDS011;13001;51.968;5.918;2024-03-06T10:08:01;75.47;;;44.50;;
22768;SDS011;13001;51.968;5.918;2024-03-06T10:10:31;80.38;;;47.75;;
22768;SDS011;13001;51.968;5.918;2024-03-06T10:12:58;81.60;;;46.45;;
22768;SDS011;13001;51.968;5.918;2024-03-06T10:15:26;79.22;;;44.93;;
22768;SDS011;13001;51.968;5.918;2024-03-06T10:18:10;80.05;;;48.02;;
22768;SDS011;13001;51.968;5.918;2024-03-06T10:20:41;76.33;;;45.77;;
22768;SDS011;13001;51.968;5.918;2024-03-06T10:23:09;79.40;;;44.37;;
22768;SDS011;13001;51.968;5.918;2024-03-06T10:25:36;78.30;;;45.78;;
22768;SDS011;13001;51.968;5.918;2024-03-06T10:28:04;75.80;;;46.28;;
22768;SDS011;13001;51.968;5.918;2024-03-06T10:30:41;84.55;;;47.23;;
22768;SDS011;13001;51.968;5.918;2024-03-06T10:33:07;82.47;;;46.53;;
22768;SDS011;13001;51.968;5.918;2024-03-06T10:35:35;86.15;;;48.98;;
22768;SDS011;13001;51.968;5.918;2024-03-06T10:38:04;81.20;;;46.33;;
22768;SDS011;13001;51.968;5.918;2024-03-06T10:40:38;85.15;;;47.25;;
22768;SDS011;13001;51.968;5.918;2024-03-06T10:43:03;81.95;;;45.48;;
22768;SDS011;13001;51.968;5.918;2024-03-06T10:45:34;82.05;;;47.78;;
22768;SDS011;13001;51.968;5.918;2024-03-06T10:48:17;87.30;;;48.10;;
22768;SDS011;13001;51.968;5.918;2024-03-06T10:50:46;84.37;;;47.98;;
22768;SDS011;13001;51.968;5.918;2024-03-06T10:53:15;83.10;;;47.80;;
22768;SDS011;13001;51.968;5.918;2024-03-06T10:55:47;81.63;;;46.33;;
22768;SDS011;13001;51.968;5.918;2024-03-06T10:58:17;74.70;;;44.13;;
22768;SDS011;13001;51.968;5.918;2024-03-06T11:00:47;84.07;;;47.20;;
22768;SDS011;13001;51.968;5.918;2024-03-06T11:03:16;76.97;;;44.43;;
22768;SDS011;13001;51.968;5.918;2024-03-06T11:05:44;74.05;;;44.50;;
22768;SDS011;13001;51.968;5.918;2024-03-06T11:08:16;70.67;;;44.63;;
22768;SDS011;13001;51.968;5.918;2024-03-06T11:10:44;78.40;;;44.40;;
22768;SDS011;13001;51.968;5.918;2024-03-06T11:15:53;76.85;;;42.43;;
22768;SDS011;13001;51.968;5.918;2024-03-06T11:20:59;68.97;;;41.75;;
22768;SDS011;13001;51.968;5.918;2024-03-06T11:23:31;69.45;;;42.83;;
22768;SDS011;13001;51.968;5.918;2024-03-06T11:26:00;77.65;;;44.58;;
22768;SDS011;13001;51.968;5.918;2024-03-06T11:31:02;71.97;;;43.40;;
22768;SDS011;13001;51.968;5.918;2024-03-06T11:36:16;71.57;;;43.27;;
22768;SDS011;13001;51.968;5.918;2024-03-06T11:38:51;73.45;;;44.18;;
22768;SDS011;13001;51.968;5.918;2024-03-06T11:41:20;73.95;;;42.40;;
22768;SDS011;13001;51.968;5.918;2024-03-06T11:43:49;68.72;;;41.70;;
22768;SDS011;13001;51.968;5.918;2024-03-06T11:46:22;65.37;;;41.48;;
22768;SDS011;13001;51.968;5.918;2024-03-06T11:48:52;70.35;;;41.25;;
22768;SDS011;13001;51.968;5.918;2024-03-06T11:51:21;68.97;;;40.93;;
22768;SDS011;13001;51.968;5.918;2024-03-06T11:53:50;66.73;;;40.27;;
22768;SDS011;13001;51.968;5.918;2024-03-06T11:56:19;70.12;;;41.28;;
22768;SDS011;13001;51.968;5.918;2024-03-06T11:58:47;65.72;;;39.88;;
22768;SDS011;13001;51.968;5.918;2024-03-06T12:01:15;64.87;;;40.03;;
22768;SDS011;13001;51.968;5.918;2024-03-06T12:03:45;62.93;;;40.20;;
22768;SDS011;13001;51.968;5.918;2024-03-06T12:06:14;58.80;;;38.30;;
22768;SDS011;13001;51.968;5.918;2024-03-06T12:08:44;61.42;;;38.67;;
22768;SDS011;13001;51.968;5.918;2024-03-06T12:11:11;61.10;;;38.00;;
22768;SDS011;13001;51.968;5.918;2024-03-06T12:13:41;60.78;;;37.65;;
22768;SDS011;13001;51.968;5.918;2024-03-06T12:16:08;58.95;;;36.65;;
22768;SDS011;13001;51.968;5.918;2024-03-06T12:18:37;58.40;;;37.10;;
22768;SDS011;13001;51.968;5.918;2024-03-06T12:21:04;57.65;;;37.40;;
22768;SDS011;13001;51.968;5.918;2024-03-06T12:23:32;63.23;;;37.78;;
22768;SDS011;13001;51.968;5.918;2024-03-06T12:26:03;56.80;;;37.55;;
22768;SDS011;13001;51.968;5.918;2024-03-06T12:28:32;57.80;;;37.15;;
22768;SDS011;13001;51.968;5.918;2024-03-06T12:31:01;58.87;;;37.23;;
22768;SDS011;13001;51.968;5.918;2024-03-06T12:33:30;60.33;;;37.23;;
22768;SDS011;13001;51.968;5.918;2024-03-06T12:36:06;58.73;;;36.88;;
22768;SDS011;13001;51.968;5.918;2024-03-06T12:38:40;57.80;;;38.10;;
22768;SDS011;13001;51.968;5.918;2024-03-06T12:41:06;61.55;;;37.42;;
22768;SDS011;13001;51.968;5.918;2024-03-06T12:43:34;57.75;;;37.38;;
22768;SDS011;13001;51.968;5.918;2024-03-06T12:46:01;63.07;;;35.97;;
22768;SDS011;13001;51.968;5.918;2024-03-06T12:48:29;63.78;;;38.05;;
22768;SDS011;13001;51.968;5.918;2024-03-06T12:50:56;58.55;;;37.08;;
22768;SDS011;13001;51.968;5.918;2024-03-06T12:53:25;54.87;;;36.60;;
22768;SDS011;13001;51.968;5.918;2024-03-06T12:55:53;56.45;;;35.83;;
22768;SDS011;13001;51.968;5.918;2024-03-06T12:58:20;54.90;;;35.88;;
22768;SDS011;13001;51.968;5.918;2024-03-06T13:00:48;57.43;;;36.05;;
22768;SDS011;13001;51.968;5.918;2024-03-06T13:03:17;54.00;;;34.92;;
22768;SDS011;13001;51.968;5.918;2024-03-06T13:05:46;55.78;;;35.45;;
22768;SDS011;13001;51.968;5.918;2024-03-06T13:08:13;53.35;;;35.40;;
22768;SDS011;13001;51.968;5.918;2024-03-06T13:10:42;49.80;;;33.02;;
22768;SDS011;13001;51.968;5.918;2024-03-06T13:13:10;58.03;;;36.40;;
22768;SDS011;13001;51.968;5.918;2024-03-06T13:15:39;55.65;;;34.23;;
22768;SDS011;13001;51.968;5.918;2024-03-06T13:18:06;54.90;;;33.35;;
22768;SDS011;13001;51.968;5.918;2024-03-06T13:20:34;52.53;;;33.73;;
22768;SDS011;13001;51.968;5.918;2024-03-06T13:23:01;46.30;;;31.77;;
22768;SDS011;13001;51.968;5.918;2024-03-06T13:25:29;54.08;;;34.27;;
22768;SDS011;13001;51.968;5.918;2024-03-06T13:27:57;55.63;;;33.63;;
22768;SDS011;13001;51.968;5.918;2024-03-06T13:30:25;47.10;;;30.53;;
22768;SDS011;13001;51.968;5.918;2024-03-06T13:32:52;48.33;;;29.82;;
22768;SDS011;13001;51.968;5.918;2024-03-06T13:35:21;44.23;;;29.10;;
22768;SDS011;13001;51.968;5.918;2024-03-06T13:37:49;46.77;;;30.97;;
22768;SDS011;13001;51.968;5.918;2024-03-06T13:40:17;49.20;;;31.00;;
22768;SDS011;13001;51.968;5.918;2024-03-06T13:42:46;45.33;;;29.75;;
22768;SDS011;13001;51.968;5.918;2024-03-06T13:45:14;44.35;;;29.50;;
22768;SDS011;13001;51.968;5.918;2024-03-06T13:47:42;44.75;;;29.90;;
22768;SDS011;13001;51.968;5.918;2024-03-06T13:50:11;44.40;;;28.10;;
22768;SDS011;13001;51.968;5.918;2024-03-06T13:52:41;45.70;;;29.00;;
22768;SDS011;13001;51.968;5.918;2024-03-06T13:55:09;38.35;;;27.32;;
22768;SDS011;13001;51.968;5.918;2024-03-06T13:57:38;44.20;;;27.05;;
22768;SDS011;13001;51.968;5.918;2024-03-06T14:00:07;38.73;;;25.57;;
22768;SDS011;13001;51.968;5.918;2024-03-06T14:02:40;39.83;;;24.82;;
22768;SDS011;13001;51.968;5.918;2024-03-06T14:05:08;35.43;;;23.10;;
22768;SDS011;13001;51.968;5.918;2024-03-06T14:07:35;31.77;;;21.68;;
22768;SDS011;13001;51.968;5.918;2024-03-06T14:10:06;33.23;;;20.90;;
22768;SDS011;13001;51.968;5.918;2024-03-06T14:12:36;26.35;;;15.32;;
22768;SDS011;13001;51.968;5.918;2024-03-06T14:15:07;27.02;;;18.12;;
22768;SDS011;13001;51.968;5.918;2024-03-06T14:17:36;28.98;;;17.92;;
22768;SDS011;13001;51.968;5.918;2024-03-06T14:20:04;21.02;;;14.15;;
22768;SDS011;13001;51.968;5.918;2024-03-06T14:22:32;18.05;;;10.95;;
22768;SDS011;13001;51.968;5.918;2024-03-06T14:25:01;19.50;;;12.57;;
22768;SDS011;13001;51.968;5.918;2024-03-06T14:27:30;18.57;;;13.72;;
22768;SDS011;13001;51.968;5.918;2024-03-06T14:29:57;33.78;;;20.92;;
22768;SDS011;13001;51.968;5.918;2024-03-06T14:32:25;26.37;;;19.02;;
22768;SDS011;13001;51.968;5.918;2024-03-06T14:34:53;29.12;;;18.17;;
22768;SDS011;13001;51.968;5.918;2024-03-06T14:37:21;28.27;;;18.62;;
22768;SDS011;13001;51.968;5.918;2024-03-06T14:39:49;24.18;;;17.07;;
22768;SDS011;13001;51.968;5.918;2024-03-06T14:42:19;26.55;;;18.30;;
22768;SDS011;13001;51.968;5.918;2024-03-06T14:44:47;23.67;;;15.03;;